This is the latest recevied weather packets stored in our database for station/object CE4TQY-10. If no packets are shown the sender has not sent any weather packets the latest 1 day(s).
| Time | Temp. | Humidity | Pressure | Rain* | Wind** | Luminosity | Snow |
|---|---|---|---|---|---|---|---|
| 1778089995 | 13.89° C | 87% | 1020.4 hPa | - | - | - | - |
| 1778089094 | 13.33° C | 87% | 1020.4 hPa | - | - | - | - |
| 1778082787 | 13.89° C | 77% | 1019.8 hPa | - | - | - | - |
| 1778081886 | 14.44° C | 74% | 1019.7 hPa | - | - | - | - |
| 1778080985 | 15° C | 67% | 1019.2 hPa | - | - | - | - |
| 1778080084 | 15.56° C | 65% | 1019.5 hPa | - | - | - | - |
| 1778073778 | 17.78° C | 58% | 1018.8 hPa | - | - | - | - |
| 1778070173 | 16.67° C | 62% | 1018.7 hPa | - | - | - | - |
| 1778069272 | 15.56° C | 65% | 1018.7 hPa | - | - | - | - |
| 1778065668 | 13.33° C | 73% | 1018.4 hPa | - | - | - | - |
| 1778064767 | 13.89° C | 72% | 1018.2 hPa | - | - | - | - |
| 1778063866 | 13.33° C | 72% | 1018 hPa | - | - | - | - |
| 1778062099 | 12.78° C | 76% | 1017.8 hPa | - | - | - | - |
| 1778061163 | 12.78° C | 76% | 1017.6 hPa | - | - | - | - |
| 1778060262 | 12.22° C | 78% | 1017.4 hPa | - | - | - | - |
| 1778059361 | 12.22° C | 77% | 1017.2 hPa | - | - | - | - |
| 1778058460 | 12.78° C | 75% | 1017 hPa | - | - | - | - |
| 1778054856 | 12.78° C | 76% | 1017 hPa | - | - | - | - |
| 1778050352 | 12.78° C | 76% | 1016.9 hPa | - | - | - | - |
| 1778049451 | 12.78° C | 76% | 1017.1 hPa | - | - | - | - |
| 1778048550 | 12.78° C | 76% | 1017.2 hPa | - | - | - | - |
| 1778047649 | 12.78° C | 76% | 1017.4 hPa | - | - | - | - |
| 1778046748 | 12.78° C | 76% | 1017.5 hPa | - | - | - | - |
| 1778044045 | 13.33° C | 76% | 1017.8 hPa | - | - | - | - |
| 1778043144 | 12.78° C | 76% | 1017.9 hPa | - | - | - | - |
* Rain since midnight (hover to see other rain measurements)
** Current wind speed in m/s (hover to see current wind gust speed)